sensor_id;sensor_type;location;lat;lon;timestamp;temperature;humidity
76305;DHT22;65111;50.536;19.204;2022-12-24T00:02:19;5.60;98.00
76305;DHT22;65111;50.536;19.204;2022-12-24T00:04:45;5.80;98.00
76305;DHT22;65111;50.536;19.204;2022-12-24T00:07:11;5.50;98.00
76305;DHT22;65111;50.536;19.204;2022-12-24T00:09:38;5.70;98.00
76305;DHT22;65111;50.536;19.204;2022-12-24T00:12:04;5.50;98.00
76305;DHT22;65111;50.536;19.204;2022-12-24T00:14:30;5.60;98.00
76305;DHT22;65111;50.536;19.204;2022-12-24T00:16:56;5.40;98.00
76305;DHT22;65111;50.536;19.204;2022-12-24T00:19:22;5.50;98.00
76305;DHT22;65111;50.536;19.204;2022-12-24T00:21:48;5.50;98.00
76305;DHT22;65111;50.536;19.204;2022-12-24T00:24:14;5.50;98.10
76305;DHT22;65111;50.536;19.204;2022-12-24T00:26:40;5.40;98.10
76305;DHT22;65111;50.536;19.204;2022-12-24T00:29:06;5.40;98.10
76305;DHT22;65111;50.536;19.204;2022-12-24T00:31:32;5.50;98.10
76305;DHT22;65111;50.536;19.204;2022-12-24T00:33:58;5.30;98.00
76305;DHT22;65111;50.536;19.204;2022-12-24T00:36:23;5.20;98.10
76305;DHT22;65111;50.536;19.204;2022-12-24T00:38:49;5.30;98.10
76305;DHT22;65111;50.536;19.204;2022-12-24T00:41:15;5.30;98.20
76305;DHT22;65111;50.536;19.204;2022-12-24T00:43:56;5.30;98.20
76305;DHT22;65111;50.536;19.204;2022-12-24T00:46:24;5.30;98.30
76305;DHT22;65111;50.536;19.204;2022-12-24T00:48:51;5.30;98.30
76305;DHT22;65111;50.536;19.204;2022-12-24T00:51:17;5.30;98.30
76305;DHT22;65111;50.536;19.204;2022-12-24T00:53:43;5.40;98.40
76305;DHT22;65111;50.536;19.204;2022-12-24T00:56:09;5.30;98.40
76305;DHT22;65111;50.536;19.204;2022-12-24T00:58:36;5.30;98.30
76305;DHT22;65111;50.536;19.204;2022-12-24T01:01:02;5.40;98.40
76305;DHT22;65111;50.536;19.204;2022-12-24T01:03:28;5.40;98.40
76305;DHT22;65111;50.536;19.204;2022-12-24T01:06:20;5.10;98.40
76305;DHT22;65111;50.536;19.204;2022-12-24T01:08:49;5.50;98.40
76305;DHT22;65111;50.536;19.204;2022-12-24T01:11:16;5.30;98.50
76305;DHT22;65111;50.536;19.204;2022-12-24T01:13:42;5.20;98.40
76305;DHT22;65111;50.536;19.204;2022-12-24T01:16:17;5.40;98.40
76305;DHT22;65111;50.536;19.204;2022-12-24T01:18:44;5.30;98.30
76305;DHT22;65111;50.536;19.204;2022-12-24T01:21:10;5.40;98.50
76305;DHT22;65111;50.536;19.204;2022-12-24T01:23:35;5.30;98.40
76305;DHT22;65111;50.536;19.204;2022-12-24T01:26:02;5.30;98.40
76305;DHT22;65111;50.536;19.204;2022-12-24T01:28:29;5.30;98.40
76305;DHT22;65111;50.536;19.204;2022-12-24T01:30:55;5.20;98.30
76305;DHT22;65111;50.536;19.204;2022-12-24T01:33:21;5.40;98.20
76305;DHT22;65111;50.536;19.204;2022-12-24T01:35:47;5.20;98.40
76305;DHT22;65111;50.536;19.204;2022-12-24T01:38:14;5.30;98.60
76305;DHT22;65111;50.536;19.204;2022-12-24T01:40:41;5.20;98.60
76305;DHT22;65111;50.536;19.204;2022-12-24T01:43:29;5.20;98.60
76305;DHT22;65111;50.536;19.204;2022-12-24T01:48:34;5.20;98.70
76305;DHT22;65111;50.536;19.204;2022-12-24T01:53:43;5.20;98.70
76305;DHT22;65111;50.536;19.204;2022-12-24T01:56:10;5.30;98.70
76305;DHT22;65111;50.536;19.204;2022-12-24T01:58:39;5.50;98.90
76305;DHT22;65111;50.536;19.204;2022-12-24T02:01:08;5.30;98.90
76305;DHT22;65111;50.536;19.204;2022-12-24T02:03:34;5.40;98.80
76305;DHT22;65111;50.536;19.204;2022-12-24T02:06:00;5.50;98.80
76305;DHT22;65111;50.536;19.204;2022-12-24T02:08:26;5.40;98.80
76305;DHT22;65111;50.536;19.204;2022-12-24T02:11:13;5.40;98.90
76305;DHT22;65111;50.536;19.204;2022-12-24T02:13:42;5.40;98.80
76305;DHT22;65111;50.536;19.204;2022-12-24T02:16:31;5.50;98.80
76305;DHT22;65111;50.536;19.204;2022-12-24T02:19:20;5.40;98.70
76305;DHT22;65111;50.536;19.204;2022-12-24T02:22:06;5.50;98.80
76305;DHT22;65111;50.536;19.204;2022-12-24T02:32:33;5.50;98.60
76305;DHT22;65111;50.536;19.204;2022-12-24T02:35:08;5.50;98.70
76305;DHT22;65111;50.536;19.204;2022-12-24T02:37:50;5.50;98.70
76305;DHT22;65111;50.536;19.204;2022-12-24T02:40:28;5.60;98.70
76305;DHT22;65111;50.536;19.204;2022-12-24T02:43:00;5.60;98.80
76305;DHT22;65111;50.536;19.204;2022-12-24T02:45:32;5.50;98.60
76305;DHT22;65111;50.536;19.204;2022-12-24T02:48:00;5.60;98.70
76305;DHT22;65111;50.536;19.204;2022-12-24T02:50:27;5.50;98.60
76305;DHT22;65111;50.536;19.204;2022-12-24T02:52:53;5.60;98.70
76305;DHT22;65111;50.536;19.204;2022-12-24T02:55:39;5.60;98.60
76305;DHT22;65111;50.536;19.204;2022-12-24T03:07:26;5.60;98.50
76305;DHT22;65111;50.536;19.204;2022-12-24T03:12:47;5.50;98.40
76305;DHT22;65111;50.536;19.204;2022-12-24T03:15:17;5.50;98.50
76305;DHT22;65111;50.536;19.204;2022-12-24T03:17:45;5.70;98.50
76305;DHT22;65111;50.536;19.204;2022-12-24T03:20:16;5.60;98.60
76305;DHT22;65111;50.536;19.204;2022-12-24T03:22:43;5.60;98.50
76305;DHT22;65111;50.536;19.204;2022-12-24T03:25:09;5.50;98.60
76305;DHT22;65111;50.536;19.204;2022-12-24T03:27:35;5.40;98.70
76305;DHT22;65111;50.536;19.204;2022-12-24T03:30:08;5.60;98.70
76305;DHT22;65111;50.536;19.204;2022-12-24T03:32:35;5.50;98.70
76305;DHT22;65111;50.536;19.204;2022-12-24T03:35:00;5.60;98.70
76305;DHT22;65111;50.536;19.204;2022-12-24T03:37:27;5.50;98.80
76305;DHT22;65111;50.536;19.204;2022-12-24T03:39:53;5.50;98.80
76305;DHT22;65111;50.536;19.204;2022-12-24T03:42:19;5.50;98.80
76305;DHT22;65111;50.536;19.204;2022-12-24T03:44:45;5.50;98.90
76305;DHT22;65111;50.536;19.204;2022-12-24T03:47:11;5.50;98.90
76305;DHT22;65111;50.536;19.204;2022-12-24T03:49:37;5.40;99.10
76305;DHT22;65111;50.536;19.204;2022-12-24T03:52:03;5.40;99.00
76305;DHT22;65111;50.536;19.204;2022-12-24T03:54:29;5.50;99.00
76305;DHT22;65111;50.536;19.204;2022-12-24T03:56:55;5.30;98.90
76305;DHT22;65111;50.536;19.204;2022-12-24T03:59:21;5.30;99.10
76305;DHT22;65111;50.536;19.204;2022-12-24T04:01:47;5.30;99.20
76305;DHT22;65111;50.536;19.204;2022-12-24T04:04:13;5.20;99.20
76305;DHT22;65111;50.536;19.204;2022-12-24T04:06:40;5.30;99.20
76305;DHT22;65111;50.536;19.204;2022-12-24T04:09:06;5.30;99.20
76305;DHT22;65111;50.536;19.204;2022-12-24T04:11:32;5.40;99.40
76305;DHT22;65111;50.536;19.204;2022-12-24T04:13:58;5.50;99.50
76305;DHT22;65111;50.536;19.204;2022-12-24T04:16:24;5.40;99.50
76305;DHT22;65111;50.536;19.204;2022-12-24T04:18:50;5.40;99.70
76305;DHT22;65111;50.536;19.204;2022-12-24T04:21:17;5.40;99.80
76305;DHT22;65111;50.536;19.204;2022-12-24T04:23:43;5.70;99.80
76305;DHT22;65111;50.536;19.204;2022-12-24T04:26:11;5.60;99.90
76305;DHT22;65111;50.536;19.204;2022-12-24T04:28:38;5.70;99.80
76305;DHT22;65111;50.536;19.204;2022-12-24T04:31:15;5.60;99.90
76305;DHT22;65111;50.536;19.204;2022-12-24T04:33:41;5.60;99.70
76305;DHT22;65111;50.536;19.204;2022-12-24T04:36:12;5.70;99.70
76305;DHT22;65111;50.536;19.204;2022-12-24T04:38:39;5.60;99.80
76305;DHT22;65111;50.536;19.204;2022-12-24T04:41:14;5.80;99.90
76305;DHT22;65111;50.536;19.204;2022-12-24T04:43:41;5.90;99.80
76305;DHT22;65111;50.536;19.204;2022-12-24T04:46:10;5.90;99.90
76305;DHT22;65111;50.536;19.204;2022-12-24T04:48:40;5.80;99.90
76305;DHT22;65111;50.536;19.204;2022-12-24T04:51:07;5.90;99.80
76305;DHT22;65111;50.536;19.204;2022-12-24T04:53:34;5.80;99.70
76305;DHT22;65111;50.536;19.204;2022-12-24T04:56:00;5.80;99.60
76305;DHT22;65111;50.536;19.204;2022-12-24T04:58:26;6.00;99.60
76305;DHT22;65111;50.536;19.204;2022-12-24T05:00:53;5.90;99.60
76305;DHT22;65111;50.536;19.204;2022-12-24T05:03:19;6.10;99.60
76305;DHT22;65111;50.536;19.204;2022-12-24T05:05:45;6.10;99.60
76305;DHT22;65111;50.536;19.204;2022-12-24T05:08:12;6.00;99.50
76305;DHT22;65111;50.536;19.204;2022-12-24T05:10:38;6.10;99.60
76305;DHT22;65111;50.536;19.204;2022-12-24T05:13:04;6.00;99.40
76305;DHT22;65111;50.536;19.204;2022-12-24T05:15:30;6.00;99.50
76305;DHT22;65111;50.536;19.204;2022-12-24T05:17:56;5.90;99.40
76305;DHT22;65111;50.536;19.204;2022-12-24T05:20:23;5.90;99.30
76305;DHT22;65111;50.536;19.204;2022-12-24T05:22:49;5.90;99.30
76305;DHT22;65111;50.536;19.204;2022-12-24T05:25:37;6.10;99.30
76305;DHT22;65111;50.536;19.204;2022-12-24T05:28:23;5.90;99.40
76305;DHT22;65111;50.536;19.204;2022-12-24T05:30:49;6.00;99.30
76305;DHT22;65111;50.536;19.204;2022-12-24T05:33:15;5.90;99.30
76305;DHT22;65111;50.536;19.204;2022-12-24T05:35:41;6.00;99.30
76305;DHT22;65111;50.536;19.204;2022-12-24T05:38:07;5.90;99.30
76305;DHT22;65111;50.536;19.204;2022-12-24T05:40:33;6.00;99.30
76305;DHT22;65111;50.536;19.204;2022-12-24T05:42:59;5.90;99.30
76305;DHT22;65111;50.536;19.204;2022-12-24T05:45:25;6.00;99.40
76305;DHT22;65111;50.536;19.204;2022-12-24T05:47:51;5.80;99.50
76305;DHT22;65111;50.536;19.204;2022-12-24T05:50:17;5.90;99.40
76305;DHT22;65111;50.536;19.204;2022-12-24T05:52:43;6.00;99.30
76305;DHT22;65111;50.536;19.204;2022-12-24T05:55:09;5.90;99.30
76305;DHT22;65111;50.536;19.204;2022-12-24T05:57:35;5.90;99.30
76305;DHT22;65111;50.536;19.204;2022-12-24T06:00:00;5.80;99.20
76305;DHT22;65111;50.536;19.204;2022-12-24T06:02:26;5.90;99.30
76305;DHT22;65111;50.536;19.204;2022-12-24T06:04:52;5.80;99.30
76305;DHT22;65111;50.536;19.204;2022-12-24T06:07:18;6.00;99.20
76305;DHT22;65111;50.536;19.204;2022-12-24T06:09:44;5.90;99.40
76305;DHT22;65111;50.536;19.204;2022-12-24T06:12:10;5.80;99.60
76305;DHT22;65111;50.536;19.204;2022-12-24T06:14:36;6.00;99.60
76305;DHT22;65111;50.536;19.204;2022-12-24T06:17:02;6.00;99.30
76305;DHT22;65111;50.536;19.204;2022-12-24T06:19:28;6.00;99.50
76305;DHT22;65111;50.536;19.204;2022-12-24T06:21:53;5.90;99.40
76305;DHT22;65111;50.536;19.204;2022-12-24T06:24:19;6.10;99.40
76305;DHT22;65111;50.536;19.204;2022-12-24T06:26:45;5.90;99.40
76305;DHT22;65111;50.536;19.204;2022-12-24T06:29:11;5.90;99.40
76305;DHT22;65111;50.536;19.204;2022-12-24T06:31:37;6.00;99.50
76305;DHT22;65111;50.536;19.204;2022-12-24T06:34:02;6.10;99.50
76305;DHT22;65111;50.536;19.204;2022-12-24T06:36:28;6.00;99.40
76305;DHT22;65111;50.536;19.204;2022-12-24T06:38:54;6.10;99.50
76305;DHT22;65111;50.536;19.204;2022-12-24T06:41:21;6.10;99.30
76305;DHT22;65111;50.536;19.204;2022-12-24T06:43:49;6.20;99.30
76305;DHT22;65111;50.536;19.204;2022-12-24T06:46:16;6.20;99.30
76305;DHT22;65111;50.536;19.204;2022-12-24T06:48:42;6.20;99.20
76305;DHT22;65111;50.536;19.204;2022-12-24T06:51:10;6.20;99.30
76305;DHT22;65111;50.536;19.204;2022-12-24T06:53:36;6.20;99.20
76305;DHT22;65111;50.536;19.204;2022-12-24T06:56:03;6.40;99.20
76305;DHT22;65111;50.536;19.204;2022-12-24T06:58:30;6.30;99.10
76305;DHT22;65111;50.536;19.204;2022-12-24T07:00:56;6.40;99.10
76305;DHT22;65111;50.536;19.204;2022-12-24T07:03:22;6.30;99.10
76305;DHT22;65111;50.536;19.204;2022-12-24T07:05:48;6.30;99.10
76305;DHT22;65111;50.536;19.204;2022-12-24T07:08:13;6.40;99.30
76305;DHT22;65111;50.536;19.204;2022-12-24T07:10:39;6.50;99.30
76305;DHT22;65111;50.536;19.204;2022-12-24T07:13:05;6.50;99.50
76305;DHT22;65111;50.536;19.204;2022-12-24T07:15:31;6.40;99.30
76305;DHT22;65111;50.536;19.204;2022-12-24T07:17:57;6.50;99.10
76305;DHT22;65111;50.536;19.204;2022-12-24T07:20:23;6.50;99.00
76305;DHT22;65111;50.536;19.204;2022-12-24T07:22:49;6.50;98.90
76305;DHT22;65111;50.536;19.204;2022-12-24T07:25:15;6.70;98.90
76305;DHT22;65111;50.536;19.204;2022-12-24T07:27:41;6.50;98.80
76305;DHT22;65111;50.536;19.204;2022-12-24T07:30:08;6.50;98.90
76305;DHT22;65111;50.536;19.204;2022-12-24T07:32:34;6.70;98.90
76305;DHT22;65111;50.536;19.204;2022-12-24T07:35:00;6.50;98.90
76305;DHT22;65111;50.536;19.204;2022-12-24T07:37:26;6.70;98.70
76305;DHT22;65111;50.536;19.204;2022-12-24T07:39:52;6.70;98.90
76305;DHT22;65111;50.536;19.204;2022-12-24T07:42:18;6.80;98.70
76305;DHT22;65111;50.536;19.204;2022-12-24T07:44:44;6.80;98.70
76305;DHT22;65111;50.536;19.204;2022-12-24T07:47:09;6.80;98.60
76305;DHT22;65111;50.536;19.204;2022-12-24T07:49:35;6.80;98.50
76305;DHT22;65111;50.536;19.204;2022-12-24T07:52:02;6.70;98.40
76305;DHT22;65111;50.536;19.204;2022-12-24T07:54:27;6.90;98.30
76305;DHT22;65111;50.536;19.204;2022-12-24T07:56:53;6.60;98.30
76305;DHT22;65111;50.536;19.204;2022-12-24T07:59:20;6.90;98.30
76305;DHT22;65111;50.536;19.204;2022-12-24T08:01:46;6.90;98.40
76305;DHT22;65111;50.536;19.204;2022-12-24T08:04:12;6.80;98.30
76305;DHT22;65111;50.536;19.204;2022-12-24T08:06:38;6.80;98.20
76305;DHT22;65111;50.536;19.204;2022-12-24T08:09:05;6.90;98.30
76305;DHT22;65111;50.536;19.204;2022-12-24T08:11:30;6.80;98.40
76305;DHT22;65111;50.536;19.204;2022-12-24T08:13:56;7.10;98.50
76305;DHT22;65111;50.536;19.204;2022-12-24T08:16:22;7.00;98.60
76305;DHT22;65111;50.536;19.204;2022-12-24T08:18:48;7.00;98.50
76305;DHT22;65111;50.536;19.204;2022-12-24T08:21:14;7.10;98.40
76305;DHT22;65111;50.536;19.204;2022-12-24T08:23:40;7.20;98.40
76305;DHT22;65111;50.536;19.204;2022-12-24T08:26:07;7.20;98.30
76305;DHT22;65111;50.536;19.204;2022-12-24T08:28:34;7.20;98.30
76305;DHT22;65111;50.536;19.204;2022-12-24T08:31:00;7.20;98.10
76305;DHT22;65111;50.536;19.204;2022-12-24T08:33:26;7.20;98.00
76305;DHT22;65111;50.536;19.204;2022-12-24T08:35:53;7.40;98.00
76305;DHT22;65111;50.536;19.204;2022-12-24T08:38:20;7.30;98.10
76305;DHT22;65111;50.536;19.204;2022-12-24T08:40:47;7.40;98.00
76305;DHT22;65111;50.536;19.204;2022-12-24T08:43:16;7.50;98.00
76305;DHT22;65111;50.536;19.204;2022-12-24T08:45:42;7.60;97.80
76305;DHT22;65111;50.536;19.204;2022-12-24T08:48:09;7.50;97.70
76305;DHT22;65111;50.536;19.204;2022-12-24T08:50:38;7.40;97.60
76305;DHT22;65111;50.536;19.204;2022-12-24T08:53:04;7.40;97.80
76305;DHT22;65111;50.536;19.204;2022-12-24T08:55:30;7.40;97.90
76305;DHT22;65111;50.536;19.204;2022-12-24T08:57:56;7.40;98.00
76305;DHT22;65111;50.536;19.204;2022-12-24T09:00:22;7.40;98.00
76305;DHT22;65111;50.536;19.204;2022-12-24T09:02:48;7.40;98.00
76305;DHT22;65111;50.536;19.204;2022-12-24T09:05:14;7.50;98.00
76305;DHT22;65111;50.536;19.204;2022-12-24T09:07:41;7.60;98.00
76305;DHT22;65111;50.536;19.204;2022-12-24T09:10:07;7.70;97.80
76305;DHT22;65111;50.536;19.204;2022-12-24T09:12:34;7.60;97.90
76305;DHT22;65111;50.536;19.204;2022-12-24T09:15:00;7.80;97.80
76305;DHT22;65111;50.536;19.204;2022-12-24T09:17:26;7.70;97.80
76305;DHT22;65111;50.536;19.204;2022-12-24T09:19:52;7.80;97.70
76305;DHT22;65111;50.536;19.204;2022-12-24T09:22:18;7.80;97.50
76305;DHT22;65111;50.536;19.204;2022-12-24T09:24:44;7.90;97.60
76305;DHT22;65111;50.536;19.204;2022-12-24T09:27:10;7.80;97.40
76305;DHT22;65111;50.536;19.204;2022-12-24T09:29:36;7.80;97.40
76305;DHT22;65111;50.536;19.204;2022-12-24T09:32:06;7.80;97.40
76305;DHT22;65111;50.536;19.204;2022-12-24T09:34:32;7.80;97.40
76305;DHT22;65111;50.536;19.204;2022-12-24T09:36:58;7.80;97.40
76305;DHT22;65111;50.536;19.204;2022-12-24T09:39:26;7.90;97.40
76305;DHT22;65111;50.536;19.204;2022-12-24T09:44:40;7.70;97.30
76305;DHT22;65111;50.536;19.204;2022-12-24T09:47:23;7.50;97.30
76305;DHT22;65111;50.536;19.204;2022-12-24T09:49:53;7.70;97.40
76305;DHT22;65111;50.536;19.204;2022-12-24T09:52:41;7.70;97.40
76305;DHT22;65111;50.536;19.204;2022-12-24T09:55:26;7.60;97.40
76305;DHT22;65111;50.536;19.204;2022-12-24T09:57:54;7.80;97.60
76305;DHT22;65111;50.536;19.204;2022-12-24T10:00:25;7.80;97.50
76305;DHT22;65111;50.536;19.204;2022-12-24T10:02:52;7.80;97.50
76305;DHT22;65111;50.536;19.204;2022-12-24T10:05:28;7.90;97.60
76305;DHT22;65111;50.536;19.204;2022-12-24T10:10:53;7.90;97.60
76305;DHT22;65111;50.536;19.204;2022-12-24T10:15:58;7.90;97.70
76305;DHT22;65111;50.536;19.204;2022-12-24T10:24:39;7.90;97.70
76305;DHT22;65111;50.536;19.204;2022-12-24T10:27:14;8.10;97.60
76305;DHT22;65111;50.536;19.204;2022-12-24T10:29:49;8.10;97.70
76305;DHT22;65111;50.536;19.204;2022-12-24T10:32:27;8.00;97.60
76305;DHT22;65111;50.536;19.204;2022-12-24T10:34:58;8.20;97.60
76305;DHT22;65111;50.536;19.204;2022-12-24T10:37:26;8.10;97.60
76305;DHT22;65111;50.536;19.204;2022-12-24T10:39:54;8.10;97.60
76305;DHT22;65111;50.536;19.204;2022-12-24T10:42:26;8.20;97.70
76305;DHT22;65111;50.536;19.204;2022-12-24T10:45:01;8.20;97.50
76305;DHT22;65111;50.536;19.204;2022-12-24T10:47:30;8.20;97.50
76305;DHT22;65111;50.536;19.204;2022-12-24T10:50:04;8.20;97.60
76305;DHT22;65111;50.536;19.204;2022-12-24T10:52:36;8.10;97.50
76305;DHT22;65111;50.536;19.204;2022-12-24T10:55:09;8.00;97.60
76305;DHT22;65111;50.536;19.204;2022-12-24T10:57:36;8.10;97.70
76305;DHT22;65111;50.536;19.204;2022-12-24T11:00:04;8.10;97.70
76305;DHT22;65111;50.536;19.204;2022-12-24T11:02:34;8.00;97.90
76305;DHT22;65111;50.536;19.204;2022-12-24T11:05:02;8.10;97.90
76305;DHT22;65111;50.536;19.204;2022-12-24T11:07:30;8.00;97.90
76305;DHT22;65111;50.536;19.204;2022-12-24T11:10:02;8.00;97.90
76305;DHT22;65111;50.536;19.204;2022-12-24T11:12:37;8.10;98.00
76305;DHT22;65111;50.536;19.204;2022-12-24T11:15:26;8.10;98.00
76305;DHT22;65111;50.536;19.204;2022-12-24T11:18:03;8.20;98.10
76305;DHT22;65111;50.536;19.204;2022-12-24T11:20:32;8.20;98.10
76305;DHT22;65111;50.536;19.204;2022-12-24T11:23:00;8.20;98.10
76305;DHT22;65111;50.536;19.204;2022-12-24T11:25:28;8.20;98.20
76305;DHT22;65111;50.536;19.204;2022-12-24T11:28:10;8.30;98.10
76305;DHT22;65111;50.536;19.204;2022-12-24T11:30:36;8.20;98.10
76305;DHT22;65111;50.536;19.204;2022-12-24T11:35:31;8.30;98.20
76305;DHT22;65111;50.536;19.204;2022-12-24T11:40:42;8.40;97.90
76305;DHT22;65111;50.536;19.204;2022-12-24T11:43:39;8.60;97.80
76305;DHT22;65111;50.536;19.204;2022-12-24T11:51:39;8.70;97.50
76305;DHT22;65111;50.536;19.204;2022-12-24T11:54:16;8.70;97.30
76305;DHT22;65111;50.536;19.204;2022-12-24T11:56:53;8.60;97.20
76305;DHT22;65111;50.536;19.204;2022-12-24T11:59:33;8.70;97.10
76305;DHT22;65111;50.536;19.204;2022-12-24T12:04:53;8.80;97.00
76305;DHT22;65111;50.536;19.204;2022-12-24T12:07:30;8.80;96.80
76305;DHT22;65111;50.536;19.204;2022-12-24T12:10:14;8.80;96.70
76305;DHT22;65111;50.536;19.204;2022-12-24T12:12:42;9.00;96.50
76305;DHT22;65111;50.536;19.204;2022-12-24T12:15:22;9.10;96.50
76305;DHT22;65111;50.536;19.204;2022-12-24T12:17:58;9.20;96.30
76305;DHT22;65111;50.536;19.204;2022-12-24T12:20:35;9.40;96.00
76305;DHT22;65111;50.536;19.204;2022-12-24T12:28:22;9.80;95.00
76305;DHT22;65111;50.536;19.204;2022-12-24T12:33:46;10.00;94.20
76305;DHT22;65111;50.536;19.204;2022-12-24T12:36:19;10.10;93.80
76305;DHT22;65111;50.536;19.204;2022-12-24T12:38:46;10.20;93.10
76305;DHT22;65111;50.536;19.204;2022-12-24T12:41:25;10.20;92.80
76305;DHT22;65111;50.536;19.204;2022-12-24T12:52:06;9.90;91.80
76305;DHT22;65111;50.536;19.204;2022-12-24T12:57:24;9.50;92.20
76305;DHT22;65111;50.536;19.204;2022-12-24T12:59:52;9.40;92.30
76305;DHT22;65111;50.536;19.204;2022-12-24T13:11:09;9.20;93.00
76305;DHT22;65111;50.536;19.204;2022-12-24T13:21:45;8.90;93.50
76305;DHT22;65111;50.536;19.204;2022-12-24T13:24:19;9.00;93.60
76305;DHT22;65111;50.536;19.204;2022-12-24T13:27:05;9.00;93.60
76305;DHT22;65111;50.536;19.204;2022-12-24T13:37:33;8.80;93.60
76305;DHT22;65111;50.536;19.204;2022-12-24T13:40:16;8.80;93.70
76305;DHT22;65111;50.536;19.204;2022-12-24T13:50:42;8.70;94.20
76305;DHT22;65111;50.536;19.204;2022-12-24T13:53:22;8.60;94.30
76305;DHT22;65111;50.536;19.204;2022-12-24T13:58:48;8.40;94.70
76305;DHT22;65111;50.536;19.204;2022-12-24T14:01:18;8.50;94.80
76305;DHT22;65111;50.536;19.204;2022-12-24T14:06:37;8.30;94.70
76305;DHT22;65111;50.536;19.204;2022-12-24T14:09:25;8.30;94.80
76305;DHT22;65111;50.536;19.204;2022-12-24T14:14:38;8.20;95.20
76305;DHT22;65111;50.536;19.204;2022-12-24T14:17:12;8.30;95.30
76305;DHT22;65111;50.536;19.204;2022-12-24T14:19:46;8.10;95.40
76305;DHT22;65111;50.536;19.204;2022-12-24T14:22:33;8.20;95.40
76305;DHT22;65111;50.536;19.204;2022-12-24T14:25:16;7.90;95.50
76305;DHT22;65111;50.536;19.204;2022-12-24T14:30:18;7.90;95.70
76305;DHT22;65111;50.536;19.204;2022-12-24T14:32:46;8.00;95.70
76305;DHT22;65111;50.536;19.204;2022-12-24T14:37:40;7.90;96.00
76305;DHT22;65111;50.536;19.204;2022-12-24T14:40:12;7.80;96.00
76305;DHT22;65111;50.536;19.204;2022-12-24T14:48:00;7.90;96.20
76305;DHT22;65111;50.536;19.204;2022-12-24T14:50:38;7.90;96.30
76305;DHT22;65111;50.536;19.204;2022-12-24T14:55:56;7.80;96.50
76305;DHT22;65111;50.536;19.204;2022-12-24T14:58:25;7.70;96.50
76305;DHT22;65111;50.536;19.204;2022-12-24T15:00:55;7.70;96.50
76305;DHT22;65111;50.536;19.204;2022-12-24T15:03:24;7.70;96.60
76305;DHT22;65111;50.536;19.204;2022-12-24T15:05:56;7.70;96.60
76305;DHT22;65111;50.536;19.204;2022-12-24T15:08:29;7.80;96.60
76305;DHT22;65111;50.536;19.204;2022-12-24T15:11:00;7.80;96.60
76305;DHT22;65111;50.536;19.204;2022-12-24T15:15:57;7.70;96.60
76305;DHT22;65111;50.536;19.204;2022-12-24T15:18:27;7.80;96.70
76305;DHT22;65111;50.536;19.204;2022-12-24T15:20:57;7.70;96.70
76305;DHT22;65111;50.536;19.204;2022-12-24T15:23:35;7.70;96.80
76305;DHT22;65111;50.536;19.204;2022-12-24T15:26:23;7.70;96.60
76305;DHT22;65111;50.536;19.204;2022-12-24T15:28:47;7.80;96.80
76305;DHT22;65111;50.536;19.204;2022-12-24T15:31:19;7.60;96.80
76305;DHT22;65111;50.536;19.204;2022-12-24T15:33:46;7.60;96.80
76305;DHT22;65111;50.536;19.204;2022-12-24T15:36:14;7.80;96.80
76305;DHT22;65111;50.536;19.204;2022-12-24T15:38:43;7.70;96.90
76305;DHT22;65111;50.536;19.204;2022-12-24T15:41:23;7.70;96.90
76305;DHT22;65111;50.536;19.204;2022-12-24T15:43:50;7.70;96.90
76305;DHT22;65111;50.536;19.204;2022-12-24T15:46:21;7.70;97.00
76305;DHT22;65111;50.536;19.204;2022-12-24T15:48:49;7.60;97.10
76305;DHT22;65111;50.536;19.204;2022-12-24T15:51:33;7.60;97.00
76305;DHT22;65111;50.536;19.204;2022-12-24T15:54:05;7.70;97.00
76305;DHT22;65111;50.536;19.204;2022-12-24T15:59:31;7.70;96.90
76305;DHT22;65111;50.536;19.204;2022-12-24T16:05:18;7.70;96.90
76305;DHT22;65111;50.536;19.204;2022-12-24T16:08:04;7.70;97.00
76305;DHT22;65111;50.536;19.204;2022-12-24T16:10:47;7.60;96.90
76305;DHT22;65111;50.536;19.204;2022-12-24T16:13:18;7.60;96.90
76305;DHT22;65111;50.536;19.204;2022-12-24T16:15:49;7.70;97.00
76305;DHT22;65111;50.536;19.204;2022-12-24T16:18:21;7.60;96.90
76305;DHT22;65111;50.536;19.204;2022-12-24T16:20:50;7.70;96.80
76305;DHT22;65111;50.536;19.204;2022-12-24T16:23:23;7.60;96.80
76305;DHT22;65111;50.536;19.204;2022-12-24T16:25:50;7.70;96.90
76305;DHT22;65111;50.536;19.204;2022-12-24T16:28:18;7.70;96.90
76305;DHT22;65111;50.536;19.204;2022-12-24T16:30:45;7.70;97.00
76305;DHT22;65111;50.536;19.204;2022-12-24T16:33:14;7.70;97.00
76305;DHT22;65111;50.536;19.204;2022-12-24T16:35:40;7.60;96.90
76305;DHT22;65111;50.536;19.204;2022-12-24T16:38:06;7.60;97.00
76305;DHT22;65111;50.536;19.204;2022-12-24T16:40:32;7.60;97.00
76305;DHT22;65111;50.536;19.204;2022-12-24T16:42:58;7.50;97.00
76305;DHT22;65111;50.536;19.204;2022-12-24T16:45:44;7.60;97.10
76305;DHT22;65111;50.536;19.204;2022-12-24T16:48:18;7.60;97.00
76305;DHT22;65111;50.536;19.204;2022-12-24T16:50:45;7.50;97.10
76305;DHT22;65111;50.536;19.204;2022-12-24T16:53:18;7.50;97.10
76305;DHT22;65111;50.536;19.204;2022-12-24T16:55:46;7.40;97.00
76305;DHT22;65111;50.536;19.204;2022-12-24T16:58:13;7.50;97.20
76305;DHT22;65111;50.536;19.204;2022-12-24T17:00:41;7.30;97.10
76305;DHT22;65111;50.536;19.204;2022-12-24T17:03:07;7.40;97.30
76305;DHT22;65111;50.536;19.204;2022-12-24T17:05:43;7.40;97.20
76305;DHT22;65111;50.536;19.204;2022-12-24T17:08:09;7.30;97.40
76305;DHT22;65111;50.536;19.204;2022-12-24T17:10:36;7.40;97.40
76305;DHT22;65111;50.536;19.204;2022-12-24T17:13:03;7.30;97.40
76305;DHT22;65111;50.536;19.204;2022-12-24T17:15:29;7.40;97.30
76305;DHT22;65111;50.536;19.204;2022-12-24T17:17:55;7.30;97.30
76305;DHT22;65111;50.536;19.204;2022-12-24T17:20:22;7.30;97.30
76305;DHT22;65111;50.536;19.204;2022-12-24T17:22:49;7.10;97.20
76305;DHT22;65111;50.536;19.204;2022-12-24T17:25:15;7.10;97.30
76305;DHT22;65111;50.536;19.204;2022-12-24T17:27:41;7.20;97.20
76305;DHT22;65111;50.536;19.204;2022-12-24T17:30:08;7.20;97.40
76305;DHT22;65111;50.536;19.204;2022-12-24T17:32:34;7.20;97.30
76305;DHT22;65111;50.536;19.204;2022-12-24T17:35:02;7.10;97.30
76305;DHT22;65111;50.536;19.204;2022-12-24T17:37:28;7.10;97.40
76305;DHT22;65111;50.536;19.204;2022-12-24T17:39:54;7.10;97.40
76305;DHT22;65111;50.536;19.204;2022-12-24T17:42:20;6.90;97.40
76305;DHT22;65111;50.536;19.204;2022-12-24T17:44:46;6.90;97.40
76305;DHT22;65111;50.536;19.204;2022-12-24T17:47:12;6.90;97.60
76305;DHT22;65111;50.536;19.204;2022-12-24T17:49:38;7.00;97.60
76305;DHT22;65111;50.536;19.204;2022-12-24T17:52:04;7.00;97.40
76305;DHT22;65111;50.536;19.204;2022-12-24T17:54:30;7.00;96.80
76305;DHT22;65111;50.536;19.204;2022-12-24T17:56:57;6.80;96.60
76305;DHT22;65111;50.536;19.204;2022-12-24T17:59:24;6.70;96.60